createdAt,value
2022-08-05T00:00:20.846Z,4.05
2022-08-05T00:02:51.717Z,4.05
2022-08-05T00:06:02.039Z,3.70
2022-08-05T00:08:34.664Z,4.03
2022-08-05T00:11:01.621Z,4.75
2022-08-05T00:13:39.335Z,4.20
2022-08-05T00:16:09.572Z,3.45
2022-08-05T00:18:39.760Z,3.45
2022-08-05T00:21:08.483Z,4.00
2022-08-05T00:23:46.328Z,3.88
2022-08-05T00:26:20.888Z,3.40
2022-08-05T00:28:49.236Z,3.70
2022-08-05T00:31:16.326Z,3.78
2022-08-05T00:34:53.476Z,4.45
2022-08-05T00:37:09.859Z,3.65
2022-08-05T00:39:19.831Z,4.07
2022-08-05T00:41:54.885Z,4.10
2022-08-05T00:44:30.785Z,3.20
2022-08-05T00:47:03.954Z,4.47
2022-08-05T00:49:44.716Z,3.60
2022-08-05T00:52:28.663Z,4.68
2022-08-05T00:54:56.241Z,3.90
2022-08-05T00:57:25.141Z,4.15
2022-08-05T00:59:54.565Z,4.03
2022-08-05T01:02:21.226Z,3.67
2022-08-05T01:04:51.047Z,3.85
2022-08-05T01:07:17.853Z,3.67
2022-08-05T01:09:45.116Z,3.78
2022-08-05T01:12:18.860Z,3.30
2022-08-05T01:14:55.909Z,4.18
2022-08-05T01:17:32.072Z,4.80
2022-08-05T01:20:30.026Z,3.30
2022-08-05T01:23:23.716Z,3.92
2022-08-05T01:26:08.855Z,4.05
2022-08-05T01:28:51.871Z,3.67
2022-08-05T01:31:44.632Z,3.58
2022-08-05T01:34:20.305Z,3.75
2022-08-05T01:36:56.946Z,3.92
2022-08-05T01:39:46.728Z,4.15
2022-08-05T01:42:17.261Z,4.32
2022-08-05T01:44:52.767Z,4.40
2022-08-05T01:47:22.289Z,3.83
2022-08-05T01:50:00.438Z,3.30
2022-08-05T01:52:31.652Z,3.42
2022-08-05T01:55:04.403Z,3.60
2022-08-05T01:58:29.946Z,3.60
2022-08-05T02:00:29.952Z,3.83
2022-08-05T02:03:16.310Z,3.63
2022-08-05T02:05:57.843Z,3.65
2022-08-05T02:08:31.330Z,4.10
2022-08-05T02:11:33.993Z,4.50
2022-08-05T02:14:17.221Z,4.20
2022-08-05T02:16:52.913Z,3.80
2022-08-05T02:19:28.582Z,4.03
2022-08-05T02:22:25.557Z,3.97
2022-08-05T02:25:00.183Z,4.25
2022-08-05T02:27:29.992Z,3.75
2022-08-05T02:30:16.817Z,4.13
2022-08-05T02:32:48.893Z,4.32
2022-08-05T02:35:27.729Z,3.80
2022-08-05T02:37:56.645Z,3.85
2022-08-05T02:40:27.545Z,3.55
2022-08-05T02:42:56.586Z,4.13
2022-08-05T02:45:25.613Z,3.97
2022-08-05T02:48:07.531Z,4.40
2022-08-05T02:50:43.913Z,4.18
2022-08-05T02:53:16.183Z,4.97
2022-08-05T02:55:54.942Z,5.00
2022-08-05T02:58:27.507Z,6.25
2022-08-05T03:00:59.018Z,5.15
2022-08-05T03:03:33.936Z,4.90
2022-08-05T03:06:53.762Z,4.55
2022-08-05T03:08:52.169Z,4.88
2022-08-05T03:11:56.585Z,5.13
2022-08-05T03:14:13.536Z,4.60
2022-08-05T03:16:40.572Z,4.43
2022-08-05T03:19:12.805Z,4.30
2022-08-05T03:21:48.977Z,4.25
2022-08-05T03:24:27.534Z,5.03
2022-08-05T03:26:57.776Z,4.38
2022-08-05T03:29:24.600Z,4.60
2022-08-05T03:32:12.163Z,4.55
2022-08-05T03:34:42.440Z,5.00
2022-08-05T03:37:18.353Z,3.92
2022-08-05T03:40:01.466Z,4.90
2022-08-05T03:42:32.952Z,5.13
2022-08-05T03:45:21.439Z,4.65
2022-08-05T03:47:49.822Z,4.55
2022-08-05T03:50:16.620Z,4.68
2022-08-05T03:55:50.797Z,4.90
2022-08-05T03:56:11.897Z,4.90
2022-08-05T03:58:44.770Z,5.10
2022-08-05T04:01:13.457Z,5.28
2022-08-05T04:04:05.390Z,4.90
2022-08-05T04:06:34.046Z,5.13
2022-08-05T04:09:01.880Z,4.10
2022-08-05T04:11:42.550Z,4.95
2022-08-05T04:14:18.033Z,4.72
2022-08-05T04:16:45.131Z,5.78
2022-08-05T04:19:12.921Z,5.35
2022-08-05T04:22:09.916Z,5.72
2022-08-05T04:24:27.742Z,5.10
2022-08-05T04:26:54.617Z,5.82
2022-08-05T04:29:24.792Z,4.90
2022-08-05T04:31:53.817Z,4.82
2022-08-05T04:34:33.091Z,4.80
2022-08-05T04:37:01.047Z,5.43
2022-08-05T04:39:30.411Z,5.15
2022-08-05T04:41:57.443Z,5.00
2022-08-05T04:44:30.082Z,4.72
2022-08-05T04:47:09.170Z,4.82
2022-08-05T04:49:38.882Z,4.75
2022-08-05T04:52:24.575Z,4.68
2022-08-05T04:54:56.922Z,4.27
2022-08-05T04:57:28.425Z,4.75
2022-08-05T04:59:55.475Z,5.45
2022-08-05T05:02:37.282Z,5.32
2022-08-05T05:05:25.907Z,5.50
2022-08-05T05:07:56.600Z,5.63
2022-08-05T05:10:29.716Z,5.13
2022-08-05T05:12:56.731Z,5.75
2022-08-05T05:15:57.927Z,5.32
2022-08-05T05:18:31.315Z,5.45
2022-08-05T05:21:01.128Z,5.45
2022-08-05T05:23:39.348Z,5.32
2022-08-05T05:26:14.401Z,5.45
2022-08-05T05:28:42.909Z,4.90
2022-08-05T05:31:12.152Z,4.72
2022-08-05T05:33:59.512Z,5.10
2022-08-05T05:36:25.439Z,4.45
2022-08-05T05:38:57.092Z,5.20
2022-08-05T05:41:23.918Z,5.53
2022-08-05T05:43:57.174Z,5.35
2022-08-05T05:46:26.736Z,4.43
2022-08-05T05:48:53.360Z,4.68
2022-08-05T05:51:24.369Z,4.70
2022-08-05T05:53:57.409Z,5.10
2022-08-05T05:56:32.845Z,4.85
2022-08-05T05:59:06.361Z,4.70
2022-08-05T06:01:40.043Z,4.85
2022-08-05T06:04:12.736Z,4.40
2022-08-05T06:06:42.568Z,5.20
2022-08-05T06:09:09.504Z,4.72
2022-08-05T06:11:59.608Z,5.20
2022-08-05T06:14:29.585Z,4.90
2022-08-05T06:16:57.077Z,4.80
2022-08-05T06:19:26.199Z,4.60
2022-08-05T06:22:06.378Z,4.50
2022-08-05T06:24:34.028Z,4.40
2022-08-05T06:27:01.989Z,4.90
2022-08-05T06:29:46.472Z,4.80
2022-08-05T06:32:21.351Z,4.72
2022-08-05T06:34:57.470Z,4.65
2022-08-05T06:37:56.251Z,4.47
2022-08-05T06:40:13.726Z,4.47
2022-08-05T06:42:40.933Z,4.68
2022-08-05T06:45:09.219Z,4.35
2022-08-05T06:48:36.988Z,4.95
2022-08-05T06:50:23.748Z,5.18
2022-08-05T06:53:03.600Z,4.93
2022-08-05T06:55:36.506Z,4.07
2022-08-05T06:58:29.565Z,5.55
2022-08-05T07:00:51.131Z,5.03
2022-08-05T07:03:17.848Z,4.68
2022-08-05T07:05:46.278Z,4.38
2022-08-05T07:08:13.202Z,4.90
2022-08-05T07:10:52.780Z,5.22
2022-08-05T07:13:57.913Z,4.88
2022-08-05T07:17:58.981Z,6.05
2022-08-05T07:20:23.153Z,5.00
2022-08-05T07:22:22.092Z,4.40
2022-08-05T07:24:57.050Z,5.05
2022-08-05T07:27:23.942Z,4.95
2022-08-05T07:30:25.542Z,4.90
2022-08-05T07:32:43.712Z,4.93
2022-08-05T07:35:56.019Z,4.55
2022-08-05T07:38:00.980Z,5.50
2022-08-05T07:40:32.908Z,4.15
2022-08-05T07:42:59.966Z,4.20
2022-08-05T07:45:58.215Z,4.28
2022-08-05T07:49:03.125Z,4.15
2022-08-05T07:51:23.050Z,4.40
2022-08-05T07:53:52.897Z,4.95
2022-08-05T07:57:00.887Z,4.90
2022-08-05T07:59:08.652Z,4.60
2022-08-05T08:01:35.587Z,5.57
2022-08-05T08:04:23.030Z,5.07
2022-08-05T08:07:05.456Z,4.25
2022-08-05T08:09:33.881Z,4.80
2022-08-05T08:12:08.326Z,4.32
2022-08-05T08:14:46.663Z,4.15
2022-08-05T08:17:16.276Z,4.15
2022-08-05T08:20:22.635Z,4.15
2022-08-05T08:22:30.740Z,4.38
2022-08-05T08:25:02.880Z,4.82
2022-08-05T08:27:40.202Z,4.30
2022-08-05T08:30:28.536Z,4.15
2022-08-05T08:33:08.769Z,4.30
2022-08-05T08:35:40.940Z,3.85
2022-08-05T08:38:16.257Z,3.72
2022-08-05T08:40:45.712Z,4.00
2022-08-05T08:44:54.731Z,4.55
2022-08-05T08:46:09.875Z,4.18
2022-08-05T08:49:06.386Z,3.65
2022-08-05T08:52:03.127Z,3.63
2022-08-05T08:54:20.967Z,3.63
2022-08-05T08:56:54.184Z,3.45
2022-08-05T08:59:24.125Z,3.90
2022-08-05T09:02:01.419Z,3.80
2022-08-05T09:04:30.146Z,3.53
2022-08-05T09:06:57.477Z,3.45
2022-08-05T09:09:25.039Z,3.35
2022-08-05T09:11:57.791Z,3.65
2022-08-05T09:14:59.093Z,3.50
2022-08-05T09:17:43.253Z,3.22
2022-08-05T09:20:06.703Z,3.90
2022-08-05T09:23:19.192Z,3.67
2022-08-05T09:26:03.018Z,3.83
2022-08-05T09:28:33.373Z,3.78
2022-08-05T09:31:23.394Z,3.40
2022-08-05T09:36:56.245Z,3.78
2022-08-05T09:39:41.392Z,4.38
2022-08-05T09:42:24.474Z,3.67
2022-08-05T09:44:57.170Z,3.15
2022-08-05T09:47:48.086Z,3.25
2022-08-05T09:50:38.896Z,3.22
2022-08-05T09:53:06.620Z,3.90
2022-08-05T09:55:58.717Z,3.63
2022-08-05T09:58:23.824Z,3.35
2022-08-05T10:01:13.324Z,3.53
2022-08-05T10:03:58.557Z,3.40
2022-08-05T10:06:29.509Z,3.58
2022-08-05T10:09:24.988Z,3.63
2022-08-05T10:11:55.508Z,3.33
2022-08-05T10:14:23.920Z,3.22
2022-08-05T10:16:57.185Z,3.58
2022-08-05T10:20:03.283Z,3.83
2022-08-05T10:22:15.705Z,3.40
2022-08-05T10:24:56.930Z,3.08
2022-08-05T10:27:26.315Z,3.35
2022-08-05T10:30:41.842Z,3.70
2022-08-05T10:33:02.789Z,3.28
2022-08-05T10:35:40.385Z,3.22
2022-08-05T10:38:12.318Z,3.80
2022-08-05T10:40:57.822Z,3.22
2022-08-05T10:43:54.758Z,3.50
2022-08-05T10:46:23.760Z,3.15
2022-08-05T10:49:01.460Z,3.50
2022-08-05T10:51:57.537Z,3.40
2022-08-05T10:54:56.245Z,3.20
2022-08-05T10:57:30.814Z,3.60
2022-08-05T11:00:23.253Z,3.38
2022-08-05T11:02:58.978Z,3.30
2022-08-05T11:06:08.374Z,3.10
2022-08-05T11:09:17.492Z,3.40
2022-08-05T11:11:53.452Z,3.33
2022-08-05T11:18:07.474Z,3.20
2022-08-05T11:20:45.999Z,3.35
2022-08-05T11:24:02.218Z,3.50
2022-08-05T11:26:28.484Z,3.60
2022-08-05T11:29:11.617Z,3.78
2022-08-05T11:31:56.930Z,3.75
2022-08-05T11:34:50.832Z,3.38
2022-08-05T11:38:26.542Z,3.83
2022-08-05T11:41:34.246Z,3.58
2022-08-05T11:44:12.969Z,3.50
2022-08-05T11:47:11.000Z,3.33
2022-08-05T11:49:39.350Z,3.65
2022-08-05T11:52:11.897Z,3.80
2022-08-05T11:54:40.368Z,3.20
2022-08-05T11:57:39.359Z,3.70
2022-08-05T11:59:55.430Z,4.40
2022-08-05T12:02:33.156Z,3.67
2022-08-05T12:05:07.996Z,3.92
2022-08-05T12:08:10.329Z,4.13
2022-08-05T12:10:43.272Z,3.70
2022-08-05T12:15:45.289Z,4.82
2022-08-05T12:18:32.327Z,5.32
2022-08-05T12:21:17.399Z,6.78
2022-08-05T12:24:07.786Z,5.80
2022-08-05T12:26:44.145Z,5.90
2022-08-05T12:29:25.178Z,5.05
2022-08-05T12:32:02.092Z,5.15
2022-08-05T12:34:37.238Z,4.60
2022-08-05T12:37:16.257Z,5.30
2022-08-05T12:39:45.185Z,5.00
2022-08-05T12:42:19.435Z,4.80
2022-08-05T12:44:47.573Z,4.50
2022-08-05T12:47:26.782Z,4.35
2022-08-05T12:52:39.562Z,4.00
2022-08-05T12:55:22.470Z,4.80
2022-08-05T12:58:38.434Z,4.53
2022-08-05T13:02:01.518Z,3.88
2022-08-05T13:03:32.185Z,4.22
2022-08-05T13:06:01.023Z,4.38
2022-08-05T13:08:32.404Z,4.70
2022-08-05T13:11:04.259Z,4.35
2022-08-05T13:14:04.698Z,4.78
2022-08-05T13:16:19.927Z,4.47
2022-08-05T13:18:55.265Z,5.18
2022-08-05T13:21:28.003Z,4.72
2022-08-05T13:24:04.962Z,4.80
2022-08-05T13:26:31.666Z,4.70
2022-08-05T13:28:59.258Z,4.68
2022-08-05T13:31:33.938Z,4.93
2022-08-05T13:34:20.954Z,4.70
2022-08-05T13:36:52.411Z,5.70
2022-08-05T13:40:12.886Z,5.15
2022-08-05T13:42:05.922Z,4.97
2022-08-05T13:44:32.617Z,4.95
2022-08-05T13:47:08.535Z,5.65
2022-08-05T13:49:36.243Z,5.28
2022-08-05T13:52:14.329Z,5.28
2022-08-05T13:54:41.378Z,5.55
2022-08-05T13:57:09.353Z,4.80
2022-08-05T13:59:38.321Z,5.53
2022-08-05T14:02:26.600Z,4.97
2022-08-05T14:05:11.984Z,5.03
2022-08-05T14:07:59.919Z,4.82
2022-08-05T14:10:31.279Z,5.03
2022-08-05T14:12:58.537Z,5.78
2022-08-05T14:16:05.724Z,4.90
2022-08-05T14:18:14.604Z,5.15
2022-08-05T14:20:46.805Z,4.80
2022-08-05T14:23:18.981Z,5.10
2022-08-05T14:25:54.264Z,5.13
2022-08-05T14:28:26.872Z,5.18
2022-08-05T14:30:54.437Z,5.07
2022-08-05T14:33:22.567Z,5.28
2022-08-05T14:35:51.717Z,4.28
2022-08-05T14:38:32.041Z,4.28
2022-08-05T14:41:06.382Z,4.80
2022-08-05T14:44:00.238Z,4.93
2022-08-05T14:46:28.276Z,4.47
2022-08-05T14:48:55.802Z,4.22
2022-08-05T14:51:23.946Z,3.80
2022-08-05T14:54:26.749Z,3.80
2022-08-05T14:56:44.386Z,4.18
2022-08-05T14:59:14.072Z,3.28
2022-08-05T15:01:48.183Z,3.22
2022-08-05T15:04:17.562Z,2.80
2022-08-05T15:06:49.485Z,2.90
2022-08-05T15:09:50.824Z,3.22
2022-08-05T15:12:05.606Z,2.67
2022-08-05T15:14:35.034Z,2.72
2022-08-05T15:17:04.672Z,2.55
2022-08-05T15:19:32.408Z,3.08
2022-08-05T15:22:01.331Z,2.92
2022-08-05T15:24:29.081Z,2.67
2022-08-05T15:26:57.007Z,2.65
2022-08-05T15:29:23.929Z,2.33
2022-08-05T15:31:57.512Z,2.50
2022-08-05T15:34:33.249Z,2.70
2022-08-05T15:37:06.268Z,3.40
2022-08-05T15:41:02.714Z,2.55
2022-08-05T15:42:53.549Z,2.20
2022-08-05T15:45:09.906Z,2.28
2022-08-05T15:47:37.072Z,2.50
2022-08-05T15:50:07.237Z,2.50
2022-08-05T15:52:53.392Z,2.78
2022-08-05T15:55:24.516Z,2.42
2022-08-05T15:57:51.921Z,2.90
2022-08-05T16:00:26.285Z,2.80
2022-08-05T16:05:28.199Z,2.35
2022-08-05T16:07:55.188Z,2.63
2022-08-05T16:10:25.549Z,2.67
2022-08-05T16:12:56.142Z,2.20
2022-08-05T16:15:23.374Z,2.63
2022-08-05T16:17:57.448Z,2.55
2022-08-05T16:20:25.386Z,2.33
2022-08-05T16:22:51.976Z,2.40
2022-08-05T16:25:18.651Z,2.15
2022-08-05T16:28:00.220Z,2.50
2022-08-05T16:30:32.443Z,2.50
2022-08-05T16:33:00.161Z,2.40
2022-08-05T16:35:28.494Z,2.42
2022-08-05T16:38:03.685Z,2.45
2022-08-05T16:40:52.067Z,2.30
2022-08-05T16:43:28.209Z,2.50
2022-08-05T16:46:03.478Z,2.20
2022-08-05T16:48:36.448Z,2.25
2022-08-05T16:51:08.667Z,3.10
2022-08-05T16:54:03.171Z,2.13
2022-08-05T16:56:25.879Z,2.67
2022-08-05T16:58:52.476Z,2.50
2022-08-05T17:01:19.280Z,2.20
2022-08-05T17:03:46.313Z,2.45
2022-08-05T17:06:13.414Z,2.15
2022-08-05T17:08:52.817Z,2.30
2022-08-05T17:11:25.662Z,2.17
2022-08-05T17:14:00.230Z,2.30
2022-08-05T17:16:36.562Z,2.63
2022-08-05T17:19:09.657Z,2.60
2022-08-05T17:21:37.713Z,3.08
2022-08-05T17:24:28.183Z,2.50
2022-08-05T17:26:56.111Z,2.45
2022-08-05T17:29:33.523Z,3.15
2022-08-05T17:32:06.731Z,2.90
2022-08-05T17:34:35.157Z,2.63
2022-08-05T17:37:01.990Z,2.67
2022-08-05T17:39:34.423Z,2.53
2022-08-05T17:42:19.889Z,2.50
2022-08-05T17:44:50.074Z,2.60
2022-08-05T17:47:22.138Z,3.03
2022-08-05T17:50:03.560Z,2.72
2022-08-05T17:52:34.777Z,2.67
2022-08-05T17:55:21.045Z,2.78
2022-08-05T17:57:50.065Z,2.58
2022-08-05T18:00:17.429Z,2.60
2022-08-05T18:02:46.806Z,2.55
2022-08-05T18:05:16.633Z,2.60
2022-08-05T18:07:44.514Z,2.60
2022-08-05T18:10:20.522Z,2.50
2022-08-05T18:12:48.815Z,2.22
2022-08-05T18:15:15.475Z,2.45
2022-08-05T18:18:01.596Z,3.00
2022-08-05T18:20:29.347Z,2.40
2022-08-05T18:23:00.425Z,2.20
2022-08-05T18:25:33.106Z,2.28
2022-08-05T18:28:01.706Z,2.67
2022-08-05T18:30:32.326Z,2.60
2022-08-05T18:33:00.443Z,2.67
2022-08-05T18:36:00.067Z,2.25
2022-08-05T18:38:18.957Z,2.97
2022-08-05T18:41:56.032Z,2.80
2022-08-05T18:43:37.964Z,2.80
2022-08-05T18:46:09.743Z,2.22
2022-08-05T18:48:36.763Z,3.10
2022-08-05T18:52:04.190Z,2.88
2022-08-05T18:54:13.716Z,2.83
2022-08-05T18:56:40.518Z,2.88
2022-08-05T18:59:43.587Z,2.60
2022-08-05T19:01:57.060Z,2.70
2022-08-05T19:04:25.697Z,2.97
2022-08-05T19:06:53.466Z,3.25
2022-08-05T19:09:21.066Z,3.05
2022-08-05T19:12:00.426Z,2.90
2022-08-05T19:14:44.922Z,4.05
2022-08-05T19:17:16.811Z,2.90
2022-08-05T19:19:46.346Z,2.60
2022-08-05T19:22:17.209Z,2.75
2022-08-05T19:24:54.698Z,2.83
2022-08-05T19:27:24.087Z,2.60
2022-08-05T19:29:56.535Z,2.63
2022-08-05T19:32:26.109Z,2.95
2022-08-05T19:34:55.230Z,2.67
2022-08-05T19:37:29.879Z,2.72
2022-08-05T19:40:11.311Z,3.00
2022-08-05T19:42:39.139Z,3.13
2022-08-05T19:45:07.163Z,2.28
2022-08-05T19:47:37.163Z,2.50
2022-08-05T19:50:07.586Z,2.28
2022-08-05T19:52:37.144Z,2.70
2022-08-05T19:55:06.744Z,2.75
2022-08-05T19:57:49.058Z,2.40
2022-08-05T20:00:20.954Z,2.88
2022-08-05T20:02:47.602Z,2.78
2022-08-05T20:05:16.437Z,3.03
2022-08-05T20:07:58.799Z,2.65
2022-08-05T20:10:25.947Z,2.40
2022-08-05T20:12:52.550Z,2.83
2022-08-05T20:15:48.971Z,2.30
2022-08-05T20:18:10.584Z,2.55
2022-08-05T20:20:56.755Z,2.67
2022-08-05T20:23:40.525Z,2.88
2022-08-05T20:26:15.283Z,2.67
2022-08-05T20:28:44.204Z,2.72
2022-08-05T20:31:11.381Z,2.17
2022-08-05T20:33:38.146Z,2.13
2022-08-05T20:36:10.110Z,2.40
2022-08-05T20:38:37.940Z,2.60
2022-08-05T20:41:08.078Z,2.30
2022-08-05T20:43:59.957Z,2.08
2022-08-05T20:46:25.057Z,2.20
2022-08-05T20:48:52.410Z,2.60
2022-08-05T20:51:21.422Z,2.40
2022-08-05T20:53:55.153Z,1.95
2022-08-05T20:56:28.797Z,2.17
2022-08-05T20:58:56.810Z,2.20
2022-08-05T21:01:40.589Z,2.33
2022-08-05T21:04:10.320Z,1.98
2022-08-05T21:06:45.159Z,2.08
2022-08-05T21:09:14.418Z,2.30
2022-08-05T21:12:09.346Z,2.10
2022-08-05T21:14:34.729Z,2.17
2022-08-05T21:17:05.944Z,2.35
2022-08-05T21:19:47.159Z,2.30
2022-08-05T21:22:18.687Z,2.30
2022-08-05T21:24:51.989Z,2.20
2022-08-05T21:27:24.729Z,2.53
2022-08-05T21:29:52.714Z,2.10
2022-08-05T21:32:22.235Z,2.47
2022-08-05T21:35:06.941Z,2.60
2022-08-05T21:37:41.075Z,2.08
2022-08-05T21:40:13.705Z,3.13
2022-08-05T21:42:44.733Z,2.30
2022-08-05T21:45:25.118Z,2.42
2022-08-05T21:48:01.699Z,2.30
2022-08-05T21:50:33.724Z,2.40
2022-08-05T21:53:08.328Z,2.45
2022-08-05T21:56:06.237Z,2.40
2022-08-05T21:58:32.038Z,2.40
2022-08-05T22:00:59.804Z,2.22
2022-08-05T22:03:52.379Z,2.40
2022-08-05T22:06:14.006Z,2.80
2022-08-05T22:08:42.444Z,2.80
2022-08-05T22:11:11.988Z,2.60
2022-08-05T22:14:33.608Z,3.20
2022-08-05T22:16:42.053Z,2.30
2022-08-05T22:20:03.522Z,2.60
2022-08-05T22:22:02.859Z,3.05
2022-08-05T22:24:53.437Z,2.90
2022-08-05T22:28:09.241Z,4.03
2022-08-05T22:30:25.319Z,3.65
2022-08-05T22:33:01.614Z,3.35
2022-08-05T22:35:38.551Z,3.28
2022-08-05T22:38:14.883Z,3.05
2022-08-05T22:40:41.900Z,3.13
2022-08-05T22:43:16.260Z,2.90
2022-08-05T22:46:08.786Z,2.72
2022-08-05T22:48:39.795Z,3.05
2022-08-05T22:51:07.726Z,3.10
2022-08-05T22:53:35.784Z,3.50
2022-08-05T22:56:04.081Z,2.65
2022-08-05T22:58:36.755Z,3.88
2022-08-05T23:01:03.402Z,3.25
2022-08-05T23:03:58.195Z,3.30
2022-08-05T23:06:19.861Z,3.20
2022-08-05T23:08:53.000Z,3.95
2022-08-05T23:11:19.614Z,3.50
2022-08-05T23:13:46.415Z,3.75
2022-08-05T23:16:26.176Z,3.33
2022-08-05T23:19:00.286Z,3.60
2022-08-05T23:21:42.416Z,3.58
2022-08-05T23:24:11.670Z,3.72
2022-08-05T23:26:38.437Z,3.17
2022-08-05T23:29:05.407Z,3.40
2022-08-05T23:31:31.997Z,3.85
2022-08-05T23:34:03.880Z,3.95
2022-08-05T23:36:39.826Z,3.75
2022-08-05T23:39:11.017Z,4.03
2022-08-05T23:41:48.671Z,4.00
2022-08-05T23:44:16.689Z,3.55
2022-08-05T23:46:43.534Z,4.40
2022-08-05T23:49:16.701Z,5.05
2022-08-05T23:52:02.359Z,3.95
2022-08-05T23:54:36.349Z,3.83
2022-08-05T23:57:05.210Z,4.60
